Portada
METAR-TAF:

METAR-TAF

Aeroports :

Aeroport Internacional de Tabarka

Tabarka, Tunísia

latitud: 36-57N, longitud: 008-45E, altitud: 20 m

Observació

L'informe es va fer fa 1 hora i 8 minuts, a les 01:00 UTC
Vent 2 kt del Sud-Est
Temperatura 16°C
Humitat 88%
Pressió 1020 hPa
Visibilitat 10 km o més
sense núvols per sota de 1500 mi sense presència de cumulonimbus.

METAR: DTKA 130100Z 13002KT CAVOK 16/14 Q1020 NOSIG

Hora: 03:08 (02:08 UTC)

Pronòstic

L'informe es va fer fa 2 hores i 8 minuts, a les 00:00 UTC
Pronòstic vàlid del 13 a les 01 UTC al 13 a les 10 UTC
Vent 2 kt amb direcció variable
Visibilitat 10 km o més
sense núvols per sota de 1500 mi sense presència de cumulonimbus.
Evolucionant progressivament
l' 13 a les 07 UTC al 13 a les 09 UTC
Vent 5 kt del Nord
Visibilitat 10 km o més
Escasses núvols a una alçada de 2000 ft

TAF: DTKA 130000Z 1301/1310 VRB02KT CAVOK BECMG 1307/1309 36005KT 9999 FEW020

Observacions i pronòstics meteorològics de més de 4000 aeroports (METAR i TAF).

Les estacions disponibles són els punts grocs i vermells al mapa.

Posi el ratolí al punt desitjat per veure el nom de l'estació.

Feu clic per veure les observacions i els pronòstics meteorològics.

Per canviar el mapa: feu clic els botons verds amb una creu de color negre per apropar; al botó verd amb un guió per allunyar la imatge; o en les fletxes verdes per a mapes adjacents.


METAR-TAF: